Pagrindinis puslapis
METAR-TAF:

METAR-TAF

Oro uostai :

Fasa, Iranas

platuma: 28-58N, ilguma: 053-41E, Aukštis: 1383 m

Dabartinis oras

Ataskaita buvo paskelbta 49 minutes, ne 04:00 UTC
Vėjas 4 kt iš Vakarų
Temperatūra 29°C
Drėgmė 16%
Slėgis 1013 hPa
Matomumas 10 km arba daugiau
nėra debesų žemiau 1500 m ir nėra kamuolinių lietaus debesų

METAR: OISF 160400Z 28004KT CAVOK 29/01 Q1013 A2991

Laikas: 09:19 (04:49 UTC)


TAF: trūkstamas

Orai ataskaitas ir orų prognozės (METAR, TAF).

turimą stotys yra geltonos ir raudonos taškus žemėlapyje.

Perkelti pele per norėdami pamatyti stoties vardą.

Tada spustelėkite, norėdami matyti oro stebėjimo ir prognozės.

Norėdami pakeisti žemėlapį: spustelėkite ant žalios mygtukų su juodo kryžiaus žemyn,; žalią mygtuką su brūkšneliu, jei norite nutolinti; arba žalių rodyklių gretimoms žemėlapius.


METAR-TAF: